sensor_id;sensor_type;location;lat;lon;timestamp;temperature;humidity
28247;DHT22;66191;53.178;22.058;2023-02-01T00:01:31;2.90;99.90
28247;DHT22;66191;53.178;22.058;2023-02-01T00:04:05;2.90;99.90
28247;DHT22;66191;53.178;22.058;2023-02-01T00:06:36;2.90;99.90
28247;DHT22;66191;53.178;22.058;2023-02-01T00:09:07;2.90;99.90
28247;DHT22;66191;53.178;22.058;2023-02-01T00:11:38;3.00;99.90
28247;DHT22;66191;53.178;22.058;2023-02-01T00:14:09;3.00;99.90
28247;DHT22;66191;53.178;22.058;2023-02-01T00:16:40;3.00;99.90
28247;DHT22;66191;53.178;22.058;2023-02-01T00:19:15;3.00;99.90
28247;DHT22;66191;53.178;22.058;2023-02-01T00:21:46;3.00;99.90
28247;DHT22;66191;53.178;22.058;2023-02-01T00:24:17;3.00;99.90
28247;DHT22;66191;53.178;22.058;2023-02-01T00:26:47;3.00;99.90
28247;DHT22;66191;53.178;22.058;2023-02-01T00:29:19;3.00;99.90
28247;DHT22;66191;53.178;22.058;2023-02-01T00:31:52;3.00;99.90
28247;DHT22;66191;53.178;22.058;2023-02-01T00:34:25;3.00;99.90
28247;DHT22;66191;53.178;22.058;2023-02-01T00:36:57;3.10;99.90
28247;DHT22;66191;53.178;22.058;2023-02-01T00:39:31;3.10;99.90
28247;DHT22;66191;53.178;22.058;2023-02-01T00:42:02;3.10;99.90
28247;DHT22;66191;53.178;22.058;2023-02-01T00:44:33;3.20;99.90
28247;DHT22;66191;53.178;22.058;2023-02-01T00:47:04;3.20;99.90
28247;DHT22;66191;53.178;22.058;2023-02-01T00:49:38;3.20;99.90
28247;DHT22;66191;53.178;22.058;2023-02-01T00:52:08;3.20;99.90
28247;DHT22;66191;53.178;22.058;2023-02-01T00:54:40;3.20;99.90
28247;DHT22;66191;53.178;22.058;2023-02-01T00:57:11;3.20;99.90
28247;DHT22;66191;53.178;22.058;2023-02-01T00:59:43;3.20;99.90
28247;DHT22;66191;53.178;22.058;2023-02-01T01:02:14;3.30;99.90
28247;DHT22;66191;53.178;22.058;2023-02-01T01:04:47;3.30;99.90
28247;DHT22;66191;53.178;22.058;2023-02-01T01:07:18;3.30;99.90
28247;DHT22;66191;53.178;22.058;2023-02-01T01:09:50;3.30;99.90
28247;DHT22;66191;53.178;22.058;2023-02-01T01:12:21;3.40;99.90
28247;DHT22;66191;53.178;22.058;2023-02-01T01:14:52;3.40;99.90
28247;DHT22;66191;53.178;22.058;2023-02-01T01:17:23;3.40;99.90
28247;DHT22;66191;53.178;22.058;2023-02-01T01:19:57;3.40;99.90
28247;DHT22;66191;53.178;22.058;2023-02-01T01:22:28;3.40;99.90
28247;DHT22;66191;53.178;22.058;2023-02-01T01:24:59;3.40;99.90
28247;DHT22;66191;53.178;22.058;2023-02-01T01:27:30;3.40;99.90
28247;DHT22;66191;53.178;22.058;2023-02-01T01:30:01;3.40;99.90
28247;DHT22;66191;53.178;22.058;2023-02-01T01:32:31;3.50;99.90
28247;DHT22;66191;53.178;22.058;2023-02-01T01:35:06;3.50;99.90
28247;DHT22;66191;53.178;22.058;2023-02-01T01:37:37;3.40;99.90
28247;DHT22;66191;53.178;22.058;2023-02-01T01:40:11;3.50;99.90
28247;DHT22;66191;53.178;22.058;2023-02-01T01:42:44;3.40;99.90
28247;DHT22;66191;53.178;22.058;2023-02-01T01:45:24;3.50;99.90
28247;DHT22;66191;53.178;22.058;2023-02-01T01:47:56;3.50;99.90
28247;DHT22;66191;53.178;22.058;2023-02-01T01:50:35;3.40;99.90
28247;DHT22;66191;53.178;22.058;2023-02-01T01:53:09;3.40;99.90
28247;DHT22;66191;53.178;22.058;2023-02-01T01:55:44;3.40;99.90
28247;DHT22;66191;53.178;22.058;2023-02-01T01:58:18;3.40;99.90
28247;DHT22;66191;53.178;22.058;2023-02-01T02:00:51;3.40;99.90
28247;DHT22;66191;53.178;22.058;2023-02-01T02:03:25;3.40;99.90
28247;DHT22;66191;53.178;22.058;2023-02-01T02:06:01;3.40;99.90
28247;DHT22;66191;53.178;22.058;2023-02-01T02:08:33;3.40;99.90
28247;DHT22;66191;53.178;22.058;2023-02-01T02:11:08;3.40;99.90
28247;DHT22;66191;53.178;22.058;2023-02-01T02:13:42;3.40;99.90
28247;DHT22;66191;53.178;22.058;2023-02-01T02:16:33;3.40;99.90
28247;DHT22;66191;53.178;22.058;2023-02-01T02:19:30;3.40;99.90
28247;DHT22;66191;53.178;22.058;2023-02-01T02:22:24;3.40;99.90
28247;DHT22;66191;53.178;22.058;2023-02-01T02:28:28;3.40;99.90
28247;DHT22;66191;53.178;22.058;2023-02-01T02:31:23;3.40;99.90
28247;DHT22;66191;53.178;22.058;2023-02-01T02:34:09;3.40;99.90
28247;DHT22;66191;53.178;22.058;2023-02-01T02:36:51;3.40;99.90
28247;DHT22;66191;53.178;22.058;2023-02-01T02:39:37;3.40;99.90
28247;DHT22;66191;53.178;22.058;2023-02-01T02:42:14;3.40;99.90
28247;DHT22;66191;53.178;22.058;2023-02-01T02:45:04;3.40;99.90
28247;DHT22;66191;53.178;22.058;2023-02-01T02:47:54;3.40;99.90
28247;DHT22;66191;53.178;22.058;2023-02-01T02:50:34;3.40;99.90
28247;DHT22;66191;53.178;22.058;2023-02-01T02:53:23;3.40;99.90
28247;DHT22;66191;53.178;22.058;2023-02-01T02:56:09;3.40;99.90
28247;DHT22;66191;53.178;22.058;2023-02-01T02:58:53;3.40;99.90
28247;DHT22;66191;53.178;22.058;2023-02-01T03:01:38;3.40;99.90
28247;DHT22;66191;53.178;22.058;2023-02-01T03:04:21;3.40;99.90
28247;DHT22;66191;53.178;22.058;2023-02-01T03:06:56;3.40;99.90
28247;DHT22;66191;53.178;22.058;2023-02-01T03:09:31;3.30;99.90
28247;DHT22;66191;53.178;22.058;2023-02-01T03:12:09;3.30;99.90
28247;DHT22;66191;53.178;22.058;2023-02-01T03:14:59;3.30;99.90
28247;DHT22;66191;53.178;22.058;2023-02-01T03:17:35;3.40;99.90
28247;DHT22;66191;53.178;22.058;2023-02-01T03:20:12;3.40;99.90
28247;DHT22;66191;53.178;22.058;2023-02-01T03:22:48;3.40;99.90
28247;DHT22;66191;53.178;22.058;2023-02-01T03:25:24;3.40;99.90
28247;DHT22;66191;53.178;22.058;2023-02-01T03:27:59;3.30;99.90
28247;DHT22;66191;53.178;22.058;2023-02-01T03:30:35;3.40;99.90
28247;DHT22;66191;53.178;22.058;2023-02-01T03:33:11;3.40;99.90
28247;DHT22;66191;53.178;22.058;2023-02-01T03:35:59;3.40;99.90
28247;DHT22;66191;53.178;22.058;2023-02-01T03:38:38;3.40;99.90
28247;DHT22;66191;53.178;22.058;2023-02-01T03:41:17;3.40;99.90
28247;DHT22;66191;53.178;22.058;2023-02-01T03:43:53;3.40;99.90
28247;DHT22;66191;53.178;22.058;2023-02-01T03:46:30;3.40;99.90
28247;DHT22;66191;53.178;22.058;2023-02-01T03:49:07;3.40;99.90
28247;DHT22;66191;53.178;22.058;2023-02-01T03:51:40;3.40;99.90
28247;DHT22;66191;53.178;22.058;2023-02-01T03:54:15;3.40;99.90
28247;DHT22;66191;53.178;22.058;2023-02-01T03:56:48;3.40;99.90
28247;DHT22;66191;53.178;22.058;2023-02-01T03:59:19;3.30;99.90
28247;DHT22;66191;53.178;22.058;2023-02-01T04:01:51;3.40;99.90
28247;DHT22;66191;53.178;22.058;2023-02-01T04:04:23;3.40;99.90
28247;DHT22;66191;53.178;22.058;2023-02-01T04:06:55;3.40;99.90
28247;DHT22;66191;53.178;22.058;2023-02-01T04:09:29;3.40;99.90
28247;DHT22;66191;53.178;22.058;2023-02-01T04:12:00;3.30;99.90
28247;DHT22;66191;53.178;22.058;2023-02-01T04:14:31;3.40;99.90
28247;DHT22;66191;53.178;22.058;2023-02-01T04:17:02;3.30;99.90
28247;DHT22;66191;53.178;22.058;2023-02-01T04:19:33;3.30;99.90
28247;DHT22;66191;53.178;22.058;2023-02-01T04:22:04;3.30;99.90
28247;DHT22;66191;53.178;22.058;2023-02-01T04:24:38;3.30;99.90
28247;DHT22;66191;53.178;22.058;2023-02-01T04:27:09;3.40;99.90
28247;DHT22;66191;53.178;22.058;2023-02-01T04:29:40;3.40;99.90
28247;DHT22;66191;53.178;22.058;2023-02-01T04:32:12;3.40;99.90
28247;DHT22;66191;53.178;22.058;2023-02-01T04:34:44;3.30;99.90
28247;DHT22;66191;53.178;22.058;2023-02-01T04:37:14;3.30;99.90
28247;DHT22;66191;53.178;22.058;2023-02-01T04:39:48;3.30;99.90
28247;DHT22;66191;53.178;22.058;2023-02-01T04:42:19;3.40;99.90
28247;DHT22;66191;53.178;22.058;2023-02-01T04:44:50;3.30;99.90
28247;DHT22;66191;53.178;22.058;2023-02-01T04:47:22;3.40;99.90
28247;DHT22;66191;53.178;22.058;2023-02-01T04:49:53;3.40;99.90
28247;DHT22;66191;53.178;22.058;2023-02-01T04:52:24;3.40;99.90
28247;DHT22;66191;53.178;22.058;2023-02-01T04:54:58;3.40;99.90
28247;DHT22;66191;53.178;22.058;2023-02-01T04:57:30;3.40;99.90
28247;DHT22;66191;53.178;22.058;2023-02-01T05:00:02;3.40;99.90
28247;DHT22;66191;53.178;22.058;2023-02-01T05:02:34;3.40;99.90
28247;DHT22;66191;53.178;22.058;2023-02-01T05:05:06;3.50;99.90
28247;DHT22;66191;53.178;22.058;2023-02-01T05:07:37;3.40;99.90
28247;DHT22;66191;53.178;22.058;2023-02-01T05:10:11;3.40;99.90
28247;DHT22;66191;53.178;22.058;2023-02-01T05:12:43;3.50;99.90
28247;DHT22;66191;53.178;22.058;2023-02-01T05:15:27;3.50;99.90
28247;DHT22;66191;53.178;22.058;2023-02-01T05:17:57;3.50;99.90
28247;DHT22;66191;53.178;22.058;2023-02-01T05:20:28;3.50;99.90
28247;DHT22;66191;53.178;22.058;2023-02-01T05:22:59;3.50;99.90
28247;DHT22;66191;53.178;22.058;2023-02-01T05:25:34;3.50;99.90
28247;DHT22;66191;53.178;22.058;2023-02-01T05:28:04;3.50;99.90
28247;DHT22;66191;53.178;22.058;2023-02-01T05:30:36;3.50;99.90
28247;DHT22;66191;53.178;22.058;2023-02-01T05:33:08;3.50;99.90
28247;DHT22;66191;53.178;22.058;2023-02-01T05:35:40;3.50;99.90
28247;DHT22;66191;53.178;22.058;2023-02-01T05:38:11;3.50;99.90
28247;DHT22;66191;53.178;22.058;2023-02-01T05:40:45;3.50;99.90
28247;DHT22;66191;53.178;22.058;2023-02-01T05:43:17;3.50;99.90
28247;DHT22;66191;53.178;22.058;2023-02-01T05:45:48;3.50;99.90
28247;DHT22;66191;53.178;22.058;2023-02-01T05:48:19;3.50;99.90
28247;DHT22;66191;53.178;22.058;2023-02-01T05:50:50;3.50;99.90
28247;DHT22;66191;53.178;22.058;2023-02-01T05:53:21;3.50;99.90
28247;DHT22;66191;53.178;22.058;2023-02-01T05:55:55;3.50;99.90
28247;DHT22;66191;53.178;22.058;2023-02-01T05:58:26;3.60;99.90
28247;DHT22;66191;53.178;22.058;2023-02-01T06:00:58;3.50;99.90
28247;DHT22;66191;53.178;22.058;2023-02-01T06:03:29;3.60;99.90
28247;DHT22;66191;53.178;22.058;2023-02-01T06:06:00;3.60;99.90
28247;DHT22;66191;53.178;22.058;2023-02-01T06:08:32;3.60;99.90
28247;DHT22;66191;53.178;22.058;2023-02-01T06:11:06;3.60;99.90
28247;DHT22;66191;53.178;22.058;2023-02-01T06:13:46;3.60;99.90
28247;DHT22;66191;53.178;22.058;2023-02-01T06:16:18;3.60;99.90
28247;DHT22;66191;53.178;22.058;2023-02-01T06:18:48;3.60;99.90
28247;DHT22;66191;53.178;22.058;2023-02-01T06:21:21;3.60;99.90
28247;DHT22;66191;53.178;22.058;2023-02-01T06:23:54;3.60;99.90
28247;DHT22;66191;53.178;22.058;2023-02-01T06:26:29;3.60;99.90
28247;DHT22;66191;53.178;22.058;2023-02-01T06:29:00;3.60;99.90
28247;DHT22;66191;53.178;22.058;2023-02-01T06:31:31;3.70;99.90
28247;DHT22;66191;53.178;22.058;2023-02-01T06:34:02;3.60;99.90
28247;DHT22;66191;53.178;22.058;2023-02-01T06:36:34;3.70;99.90
28247;DHT22;66191;53.178;22.058;2023-02-01T06:39:04;3.70;99.90
28247;DHT22;66191;53.178;22.058;2023-02-01T06:41:39;3.70;99.90
28247;DHT22;66191;53.178;22.058;2023-02-01T06:44:10;3.70;99.90
28247;DHT22;66191;53.178;22.058;2023-02-01T06:46:41;3.70;99.90
28247;DHT22;66191;53.178;22.058;2023-02-01T06:49:12;3.70;99.90
28247;DHT22;66191;53.178;22.058;2023-02-01T06:51:44;3.70;99.90
28247;DHT22;66191;53.178;22.058;2023-02-01T06:54:16;3.70;99.90
28247;DHT22;66191;53.178;22.058;2023-02-01T06:56:49;3.70;99.90
28247;DHT22;66191;53.178;22.058;2023-02-01T06:59:21;3.70;99.90
28247;DHT22;66191;53.178;22.058;2023-02-01T07:01:52;3.70;99.90
28247;DHT22;66191;53.178;22.058;2023-02-01T07:04:23;3.70;99.90
28247;DHT22;66191;53.178;22.058;2023-02-01T07:06:54;3.70;99.90
28247;DHT22;66191;53.178;22.058;2023-02-01T07:09:26;3.70;99.90
28247;DHT22;66191;53.178;22.058;2023-02-01T07:12:00;3.70;99.90
28247;DHT22;66191;53.178;22.058;2023-02-01T07:14:31;3.70;99.90
28247;DHT22;66191;53.178;22.058;2023-02-01T07:17:02;3.60;99.90
28247;DHT22;66191;53.178;22.058;2023-02-01T07:19:33;3.70;99.90
28247;DHT22;66191;53.178;22.058;2023-02-01T07:22:04;3.70;99.90
28247;DHT22;66191;53.178;22.058;2023-02-01T07:24:35;3.70;99.90
28247;DHT22;66191;53.178;22.058;2023-02-01T07:27:09;3.70;99.90
28247;DHT22;66191;53.178;22.058;2023-02-01T07:29:41;3.70;99.90
28247;DHT22;66191;53.178;22.058;2023-02-01T07:32:12;3.80;99.90
28247;DHT22;66191;53.178;22.058;2023-02-01T07:34:45;3.70;99.90
28247;DHT22;66191;53.178;22.058;2023-02-01T07:37:17;3.70;99.90
28247;DHT22;66191;53.178;22.058;2023-02-01T07:39:47;3.80;99.90
28247;DHT22;66191;53.178;22.058;2023-02-01T07:42:21;3.80;99.90
28247;DHT22;66191;53.178;22.058;2023-02-01T07:44:51;3.80;99.90
28247;DHT22;66191;53.178;22.058;2023-02-01T07:47:22;3.80;99.90
28247;DHT22;66191;53.178;22.058;2023-02-01T07:49:53;3.80;99.90
28247;DHT22;66191;53.178;22.058;2023-02-01T07:52:27;3.80;99.90
28247;DHT22;66191;53.178;22.058;2023-02-01T07:54:58;3.90;99.90
28247;DHT22;66191;53.178;22.058;2023-02-01T07:57:32;3.90;99.90
28247;DHT22;66191;53.178;22.058;2023-02-01T08:00:04;4.00;99.90
28247;DHT22;66191;53.178;22.058;2023-02-01T08:02:48;4.10;99.90
28247;DHT22;66191;53.178;22.058;2023-02-01T08:05:19;4.10;99.90
28247;DHT22;66191;53.178;22.058;2023-02-01T08:07:49;4.20;99.90
28247;DHT22;66191;53.178;22.058;2023-02-01T08:10:20;4.20;99.90
28247;DHT22;66191;53.178;22.058;2023-02-01T08:12:57;4.30;99.90
28247;DHT22;66191;53.178;22.058;2023-02-01T08:15:28;4.30;99.90
28247;DHT22;66191;53.178;22.058;2023-02-01T08:17:59;4.30;99.90
28247;DHT22;66191;53.178;22.058;2023-02-01T08:20:31;4.30;99.90
28247;DHT22;66191;53.178;22.058;2023-02-01T08:23:07;4.40;99.90
28247;DHT22;66191;53.178;22.058;2023-02-01T08:25:38;4.40;99.90
28247;DHT22;66191;53.178;22.058;2023-02-01T08:28:12;4.40;99.70
28247;DHT22;66191;53.178;22.058;2023-02-01T08:30:43;4.40;99.80
28247;DHT22;66191;53.178;22.058;2023-02-01T08:33:14;4.40;99.90
28247;DHT22;66191;53.178;22.058;2023-02-01T08:35:45;4.40;99.90
28247;DHT22;66191;53.178;22.058;2023-02-01T08:38:17;4.40;99.90
28247;DHT22;66191;53.178;22.058;2023-02-01T08:40:48;4.30;99.90
28247;DHT22;66191;53.178;22.058;2023-02-01T08:43:21;4.30;99.90
28247;DHT22;66191;53.178;22.058;2023-02-01T08:45:54;4.30;99.90
28247;DHT22;66191;53.178;22.058;2023-02-01T08:48:25;4.30;99.90
28247;DHT22;66191;53.178;22.058;2023-02-01T08:50:55;4.30;99.90
28247;DHT22;66191;53.178;22.058;2023-02-01T08:53:26;4.30;99.90
28247;DHT22;66191;53.178;22.058;2023-02-01T08:55:57;4.30;99.90
28247;DHT22;66191;53.178;22.058;2023-02-01T08:58:31;4.40;99.90
28247;DHT22;66191;53.178;22.058;2023-02-01T09:01:02;4.40;99.90
28247;DHT22;66191;53.178;22.058;2023-02-01T09:03:33;4.40;99.90
28247;DHT22;66191;53.178;22.058;2023-02-01T09:06:04;4.40;99.90
28247;DHT22;66191;53.178;22.058;2023-02-01T09:08:36;4.40;99.90
28247;DHT22;66191;53.178;22.058;2023-02-01T09:11:07;4.40;99.90
28247;DHT22;66191;53.178;22.058;2023-02-01T09:13:42;4.40;99.90
28247;DHT22;66191;53.178;22.058;2023-02-01T09:16:12;4.50;99.90
28247;DHT22;66191;53.178;22.058;2023-02-01T09:18:43;4.40;99.90
28247;DHT22;66191;53.178;22.058;2023-02-01T09:21:28;4.40;99.90
28247;DHT22;66191;53.178;22.058;2023-02-01T09:23:59;4.40;99.90
28247;DHT22;66191;53.178;22.058;2023-02-01T09:26:29;4.40;99.90
28247;DHT22;66191;53.178;22.058;2023-02-01T09:29:03;4.40;99.90
28247;DHT22;66191;53.178;22.058;2023-02-01T09:31:34;4.40;99.90
28247;DHT22;66191;53.178;22.058;2023-02-01T09:34:08;4.40;99.90
28247;DHT22;66191;53.178;22.058;2023-02-01T09:36:39;4.30;99.90
28247;DHT22;66191;53.178;22.058;2023-02-01T09:39:09;4.30;99.90
28247;DHT22;66191;53.178;22.058;2023-02-01T09:41:43;4.30;99.90
28247;DHT22;66191;53.178;22.058;2023-02-01T09:44:25;4.40;99.90
28247;DHT22;66191;53.178;22.058;2023-02-01T09:47:10;4.40;99.90
28247;DHT22;66191;53.178;22.058;2023-02-01T09:49:44;4.40;99.90
28247;DHT22;66191;53.178;22.058;2023-02-01T09:52:16;4.40;99.90
28247;DHT22;66191;53.178;22.058;2023-02-01T09:54:49;4.40;99.90
28247;DHT22;66191;53.178;22.058;2023-02-01T09:57:25;4.40;99.90
28247;DHT22;66191;53.178;22.058;2023-02-01T10:00:00;4.40;99.90
28247;DHT22;66191;53.178;22.058;2023-02-01T10:02:38;4.40;99.90
28247;DHT22;66191;53.178;22.058;2023-02-01T10:05:12;4.40;99.90
28247;DHT22;66191;53.178;22.058;2023-02-01T10:07:45;4.40;99.90
28247;DHT22;66191;53.178;22.058;2023-02-01T10:10:20;4.40;99.90
28247;DHT22;66191;53.178;22.058;2023-02-01T10:15:46;4.30;99.90
28247;DHT22;66191;53.178;22.058;2023-02-01T10:18:36;4.30;99.90
28247;DHT22;66191;53.178;22.058;2023-02-01T10:21:10;4.40;99.90
28247;DHT22;66191;53.178;22.058;2023-02-01T10:23:48;4.40;99.90
28247;DHT22;66191;53.178;22.058;2023-02-01T10:26:23;4.40;99.90
28247;DHT22;66191;53.178;22.058;2023-02-01T10:28:56;4.40;99.90
28247;DHT22;66191;53.178;22.058;2023-02-01T10:31:30;4.40;99.90
28247;DHT22;66191;53.178;22.058;2023-02-01T10:34:06;4.40;99.90
28247;DHT22;66191;53.178;22.058;2023-02-01T10:36:41;4.50;99.90
28247;DHT22;66191;53.178;22.058;2023-02-01T10:39:11;4.60;99.90
28247;DHT22;66191;53.178;22.058;2023-02-01T10:41:44;4.60;99.90
28247;DHT22;66191;53.178;22.058;2023-02-01T10:44:16;4.70;99.90
28247;DHT22;66191;53.178;22.058;2023-02-01T10:46:50;4.70;99.90
28247;DHT22;66191;53.178;22.058;2023-02-01T10:49:22;4.70;99.90
28247;DHT22;66191;53.178;22.058;2023-02-01T10:51:57;4.70;99.90
28247;DHT22;66191;53.178;22.058;2023-02-01T10:54:33;4.70;99.90
28247;DHT22;66191;53.178;22.058;2023-02-01T10:57:07;4.80;99.90
28247;DHT22;66191;53.178;22.058;2023-02-01T10:59:38;4.70;99.90
28247;DHT22;66191;53.178;22.058;2023-02-01T11:02:19;4.70;99.90
28247;DHT22;66191;53.178;22.058;2023-02-01T11:04:50;4.70;99.90
28247;DHT22;66191;53.178;22.058;2023-02-01T11:07:28;4.70;99.90
28247;DHT22;66191;53.178;22.058;2023-02-01T11:09:59;4.70;99.90
28247;DHT22;66191;53.178;22.058;2023-02-01T11:12:31;4.80;99.90
28247;DHT22;66191;53.178;22.058;2023-02-01T11:15:12;4.80;99.90
28247;DHT22;66191;53.178;22.058;2023-02-01T11:17:47;4.80;99.90
28247;DHT22;66191;53.178;22.058;2023-02-01T11:20:19;4.80;99.90
28247;DHT22;66191;53.178;22.058;2023-02-01T11:22:52;4.90;99.90
28247;DHT22;66191;53.178;22.058;2023-02-01T11:25:23;4.90;99.90
28247;DHT22;66191;53.178;22.058;2023-02-01T11:27:55;4.90;99.90
28247;DHT22;66191;53.178;22.058;2023-02-01T11:30:29;5.00;99.90
28247;DHT22;66191;53.178;22.058;2023-02-01T11:33:04;5.00;99.90
28247;DHT22;66191;53.178;22.058;2023-02-01T11:35:36;5.10;99.90
28247;DHT22;66191;53.178;22.058;2023-02-01T11:38:11;5.10;99.90
28247;DHT22;66191;53.178;22.058;2023-02-01T11:40:42;5.20;99.90
28247;DHT22;66191;53.178;22.058;2023-02-01T11:43:14;5.20;99.90
28247;DHT22;66191;53.178;22.058;2023-02-01T11:45:53;5.20;99.90
28247;DHT22;66191;53.178;22.058;2023-02-01T11:48:27;5.20;99.80
28247;DHT22;66191;53.178;22.058;2023-02-01T11:51:07;5.20;99.80
28247;DHT22;66191;53.178;22.058;2023-02-01T11:53:43;5.20;99.90
28247;DHT22;66191;53.178;22.058;2023-02-01T11:56:19;5.10;99.90
28247;DHT22;66191;53.178;22.058;2023-02-01T11:58:58;5.10;99.90
28247;DHT22;66191;53.178;22.058;2023-02-01T12:01:34;5.00;99.90
28247;DHT22;66191;53.178;22.058;2023-02-01T12:04:23;5.00;99.90
28247;DHT22;66191;53.178;22.058;2023-02-01T12:07:00;5.00;99.90
28247;DHT22;66191;53.178;22.058;2023-02-01T12:09:37;5.10;99.90
28247;DHT22;66191;53.178;22.058;2023-02-01T12:12:13;5.00;99.90
28247;DHT22;66191;53.178;22.058;2023-02-01T12:15:01;5.10;99.90
28247;DHT22;66191;53.178;22.058;2023-02-01T12:17:48;5.10;99.90
28247;DHT22;66191;53.178;22.058;2023-02-01T12:20:28;5.10;99.90
28247;DHT22;66191;53.178;22.058;2023-02-01T12:23:05;5.10;99.90
28247;DHT22;66191;53.178;22.058;2023-02-01T12:25:43;5.10;99.90
28247;DHT22;66191;53.178;22.058;2023-02-01T12:28:38;5.10;99.70
28247;DHT22;66191;53.178;22.058;2023-02-01T12:31:26;5.10;99.90
28247;DHT22;66191;53.178;22.058;2023-02-01T12:34:10;5.20;99.60
28247;DHT22;66191;53.178;22.058;2023-02-01T12:36:46;5.20;99.10
28247;DHT22;66191;53.178;22.058;2023-02-01T12:39:22;5.20;99.20
28247;DHT22;66191;53.178;22.058;2023-02-01T12:41:56;5.20;99.00
28247;DHT22;66191;53.178;22.058;2023-02-01T12:44:31;5.20;98.80
28247;DHT22;66191;53.178;22.058;2023-02-01T12:47:04;5.20;99.20
28247;DHT22;66191;53.178;22.058;2023-02-01T12:49:38;5.30;99.20
28247;DHT22;66191;53.178;22.058;2023-02-01T12:52:16;5.30;99.10
28247;DHT22;66191;53.178;22.058;2023-02-01T12:54:50;5.40;98.90
28247;DHT22;66191;53.178;22.058;2023-02-01T12:57:25;5.40;98.90
28247;DHT22;66191;53.178;22.058;2023-02-01T12:59:57;5.40;98.80
28247;DHT22;66191;53.178;22.058;2023-02-01T13:02:32;5.50;98.60
28247;DHT22;66191;53.178;22.058;2023-02-01T13:05:11;5.50;98.50
28247;DHT22;66191;53.178;22.058;2023-02-01T13:07:47;5.60;98.30
28247;DHT22;66191;53.178;22.058;2023-02-01T13:10:21;5.50;98.00
28247;DHT22;66191;53.178;22.058;2023-02-01T13:12:56;5.60;97.70
28247;DHT22;66191;53.178;22.058;2023-02-01T13:15:28;5.60;97.80
28247;DHT22;66191;53.178;22.058;2023-02-01T13:18:00;5.60;97.70
28247;DHT22;66191;53.178;22.058;2023-02-01T13:20:34;5.60;97.60
28247;DHT22;66191;53.178;22.058;2023-02-01T13:23:21;5.60;97.80
28247;DHT22;66191;53.178;22.058;2023-02-01T13:25:54;5.60;97.50
28247;DHT22;66191;53.178;22.058;2023-02-01T13:28:26;5.60;97.50
28247;DHT22;66191;53.178;22.058;2023-02-01T13:31:03;5.60;97.50
28247;DHT22;66191;53.178;22.058;2023-02-01T13:33:44;5.60;97.40
28247;DHT22;66191;53.178;22.058;2023-02-01T13:39:28;5.60;97.10
28247;DHT22;66191;53.178;22.058;2023-02-01T13:42:03;5.60;97.00
28247;DHT22;66191;53.178;22.058;2023-02-01T13:44:36;5.60;96.90
28247;DHT22;66191;53.178;22.058;2023-02-01T13:47:11;5.60;97.00
28247;DHT22;66191;53.178;22.058;2023-02-01T13:49:43;5.60;96.70
28247;DHT22;66191;53.178;22.058;2023-02-01T13:52:23;5.60;96.80
28247;DHT22;66191;53.178;22.058;2023-02-01T13:57:52;5.60;96.30
28247;DHT22;66191;53.178;22.058;2023-02-01T14:00:30;5.60;96.50
28247;DHT22;66191;53.178;22.058;2023-02-01T14:03:10;5.60;96.30
28247;DHT22;66191;53.178;22.058;2023-02-01T14:08:40;5.60;96.40
28247;DHT22;66191;53.178;22.058;2023-02-01T14:13:59;5.50;96.60
28247;DHT22;66191;53.178;22.058;2023-02-01T14:16:37;5.50;96.90
28247;DHT22;66191;53.178;22.058;2023-02-01T14:19:08;5.50;97.10
28247;DHT22;66191;53.178;22.058;2023-02-01T14:21:46;5.50;97.00
28247;DHT22;66191;53.178;22.058;2023-02-01T14:24:20;5.50;96.90
28247;DHT22;66191;53.178;22.058;2023-02-01T14:26:55;5.40;96.90
28247;DHT22;66191;53.178;22.058;2023-02-01T14:29:30;5.40;97.00
28247;DHT22;66191;53.178;22.058;2023-02-01T14:32:03;5.40;96.80
28247;DHT22;66191;53.178;22.058;2023-02-01T14:34:40;5.40;97.00
28247;DHT22;66191;53.178;22.058;2023-02-01T14:37:25;5.40;97.10
28247;DHT22;66191;53.178;22.058;2023-02-01T14:39:57;5.40;97.00
28247;DHT22;66191;53.178;22.058;2023-02-01T14:42:29;5.40;97.10
28247;DHT22;66191;53.178;22.058;2023-02-01T14:47:49;5.40;97.00
28247;DHT22;66191;53.178;22.058;2023-02-01T14:50:30;5.30;97.00
28247;DHT22;66191;53.178;22.058;2023-02-01T14:53:09;5.30;97.20
28247;DHT22;66191;53.178;22.058;2023-02-01T14:55:43;5.30;97.20
28247;DHT22;66191;53.178;22.058;2023-02-01T14:58:27;5.30;97.20
28247;DHT22;66191;53.178;22.058;2023-02-01T15:01:00;5.30;97.40
28247;DHT22;66191;53.178;22.058;2023-02-01T15:06:24;5.20;97.40
28247;DHT22;66191;53.178;22.058;2023-02-01T15:08:57;5.20;97.50
28247;DHT22;66191;53.178;22.058;2023-02-01T15:11:29;5.20;97.70
28247;DHT22;66191;53.178;22.058;2023-02-01T15:14:00;5.20;97.70
28247;DHT22;66191;53.178;22.058;2023-02-01T15:16:30;5.20;97.60
28247;DHT22;66191;53.178;22.058;2023-02-01T15:19:07;5.20;97.60
28247;DHT22;66191;53.178;22.058;2023-02-01T15:21:45;5.20;97.80
28247;DHT22;66191;53.178;22.058;2023-02-01T15:24:21;5.20;97.80
28247;DHT22;66191;53.178;22.058;2023-02-01T15:26:53;5.20;97.60
28247;DHT22;66191;53.178;22.058;2023-02-01T15:29:24;5.20;97.60
28247;DHT22;66191;53.178;22.058;2023-02-01T15:31:59;5.20;97.70
28247;DHT22;66191;53.178;22.058;2023-02-01T15:34:44;5.20;97.70
28247;DHT22;66191;53.178;22.058;2023-02-01T15:37:20;5.20;97.60
28247;DHT22;66191;53.178;22.058;2023-02-01T15:40:18;5.20;97.60
28247;DHT22;66191;53.178;22.058;2023-02-01T15:42:51;5.20;97.70
28247;DHT22;66191;53.178;22.058;2023-02-01T15:45:25;5.20;97.60
28247;DHT22;66191;53.178;22.058;2023-02-01T15:47:56;5.20;97.70
28247;DHT22;66191;53.178;22.058;2023-02-01T15:50:29;5.20;97.60
28247;DHT22;66191;53.178;22.058;2023-02-01T15:53:03;5.10;97.50
28247;DHT22;66191;53.178;22.058;2023-02-01T15:55:36;5.10;97.50
28247;DHT22;66191;53.178;22.058;2023-02-01T15:58:22;5.20;97.60
28247;DHT22;66191;53.178;22.058;2023-02-01T16:00:53;5.10;97.60
28247;DHT22;66191;53.178;22.058;2023-02-01T16:03:25;5.10;97.80
28247;DHT22;66191;53.178;22.058;2023-02-01T16:05:58;5.10;97.90
28247;DHT22;66191;53.178;22.058;2023-02-01T16:08:32;5.10;98.00
28247;DHT22;66191;53.178;22.058;2023-02-01T16:11:16;5.10;98.10
28247;DHT22;66191;53.178;22.058;2023-02-01T16:13:50;5.10;98.20
28247;DHT22;66191;53.178;22.058;2023-02-01T16:16:22;5.10;98.30
28247;DHT22;66191;53.178;22.058;2023-02-01T16:18:53;5.10;98.40
28247;DHT22;66191;53.178;22.058;2023-02-01T16:21:24;5.00;98.40
28247;DHT22;66191;53.178;22.058;2023-02-01T16:23:57;5.00;98.40
28247;DHT22;66191;53.178;22.058;2023-02-01T16:26:32;5.00;98.30
28247;DHT22;66191;53.178;22.058;2023-02-01T16:29:03;5.00;98.40
28247;DHT22;66191;53.178;22.058;2023-02-01T16:31:35;5.00;98.40
28247;DHT22;66191;53.178;22.058;2023-02-01T16:34:09;5.00;98.50
28247;DHT22;66191;53.178;22.058;2023-02-01T16:36:41;5.00;98.80
28247;DHT22;66191;53.178;22.058;2023-02-01T16:39:15;5.00;98.80